Flight Track Log - Related Links

Times and Time Zones

All times are in EDT time to prevent confusion due to time zone crossing. See the SWA2336 flight status page for this flight to view local times or setup timezone preferences in your user account.

Time Position Orientation Groundspeed Altitude Reporting Facility
EDT Latitude Longitude Course Direction KTS MPH feet Rate Location/Type
01:25PM 30.2022 -97.5678 47° Northeast 295 339 5,900  Level Houston Center
01:26PM 30.2769 -97.5153 31° Northeast 311 358 9,700 2,855 Climbing Houston Center
01:27PM 30.3506 -97.4603 33° Northeast 310 357 11,800 1,500 Climbing Houston Center
01:29PM 30.4297 -97.3797 41° Northeast 380 437 12,800 1,707 Climbing Houston Center
01:30PM 30.5882 -97.2618 41° Northeast  Level FlightAware Approximate
01:30PM 30.5303 -97.2689 43° Northeast 417 480 15,300  Level Houston Center
01:31PM 30.6471 -97.1828 47° Northeast  Level FlightAware Approximate
01:31PM 30.6214 -97.1700 43° Northeast 441 507 17,500  Level Houston Center
01:32PM 30.7133 -97.0672 44° Northeast 456 525 20,100 2,177 Climbing Houston Center
01:33PM 30.8058 -96.9656 43° Northeast 457 526 22,000 919 Climbing Houston Center
01:34PM 30.9011 -96.8586 44° Northeast 469 540 22,000  Level Houston Center
01:35PM 30.9981 -96.7514 43° Northeast 478 550 22,000  Level Houston Center
01:36PM 31.1097 -96.6275 44° Northeast 478 550 22,000  Level Houston Center
01:37PM 31.2189 -96.5411 34° Northeast 481 554 22,000  Level Houston Center
01:38PM 31.3494 -96.5206 North 474 545 22,000  Level Houston Center
01:39PM 31.4797 -96.5028 North 469 540 22,000  Level Houston Center
01:40PM 31.6119 -96.4856 North 472 543 22,000  Level Houston Center
01:41PM 31.7483 -96.4656 North 460 529 22,000 -1,261 Level Fort Worth Center
01:42PM 31.8778 -96.4469 North 460 529 19,500 -2,672 Descending Fort Worth Center
01:43PM 31.9944 -96.4336 North 445 512 16,700 -2,628 Descending Fort Worth Center
01:44PM 32.1114 -96.4175 North 427 491 14,200 -2,380 Descending Fort Worth Center
01:45PM 32.2281 -96.4017 North 410 472 11,900 -1,916 Descending Fort Worth Center
01:46PM 32.3219 -96.3883 North 397 457 10,400 -1,350 Descending Fort Worth Center
01:47PM 32.4283 -96.3747 North 368 423 9,200 -694 Descending Fort Worth Center
01:48PM 32.5036 -96.4108 338° Northwest 305 351 9,000 -400 Descending Fort Worth Center
01:49PM 32.5875 -96.4617 333° Northwest 311 358 8,400 -800 Descending Fort Worth Center
01:50PM 32.6589 -96.5053 333° Northwest 316 364 7,400 -1,000 Descending Fort Worth Center
01:51PM 32.7303 -96.5714 322° Northwest 306 352 6,400 -857 Descending Fort Worth Center
01:52PM 32.7956 -96.6275 324° Northwest 306 352 5,700 -718 Descending Fort Worth Center
01:53PM 32.8667 -96.6833 327° Northwest 297 342 5,000 -1,160 Descending Dallas / Fort Worth TRACON
01:54PM 32.9167 -96.7667 306° West 286 329 3,400 -992 Descending Dallas / Fort Worth TRACON
01:55PM 32.9167 -96.8500 270° West 252 290 3,000 -350 Descending Dallas / Fort Worth TRACON
01:56PM 32.9167 -96.9000 270° West 150 173 2,700 -850 Descending Dallas / Fort Worth TRACON
01:57PM 32.8833 -96.9000 180° South 138 159 1,300 -692 Descending Dallas / Fort Worth TRACON
01:59PM 32.8300 -96.8644 151° Southeast 92 106 600 -344 Descending Fort Worth Center

Login

Don't have an account? Register now (free) for customized features, flight alerts, and more!